createdAt,value
2023-05-11T00:00:44.722Z,15.93
2023-05-11T00:03:12.471Z,16.00
2023-05-11T00:05:40.137Z,14.10
2023-05-11T00:08:07.633Z,14.50
2023-05-11T00:10:35.364Z,15.85
2023-05-11T00:13:04.272Z,13.35
2023-05-11T00:15:31.778Z,13.63
2023-05-11T00:17:59.356Z,15.93
2023-05-11T00:20:26.978Z,16.05
2023-05-11T00:22:54.470Z,15.80
2023-05-11T00:25:22.013Z,15.45
2023-05-11T00:27:49.523Z,15.85
2023-05-11T00:30:19.037Z,14.03
2023-05-11T00:32:47.008Z,14.80
2023-05-11T00:35:14.715Z,15.45
2023-05-11T00:37:42.444Z,13.57
2023-05-11T00:40:10.771Z,14.85
2023-05-11T00:42:38.277Z,13.97
2023-05-11T00:45:07.251Z,16.75
2023-05-11T00:47:36.176Z,16.42
2023-05-11T00:50:03.797Z,16.17
2023-05-11T00:52:31.397Z,16.05
2023-05-11T00:54:59.041Z,15.90
2023-05-11T00:57:26.853Z,16.55
2023-05-11T00:59:54.425Z,16.88
2023-05-11T01:02:22.097Z,16.77
2023-05-11T01:04:52.993Z,16.35
2023-05-11T01:07:26.799Z,17.23
2023-05-11T01:10:04.608Z,16.90
2023-05-11T01:12:44.209Z,21.27
2023-05-11T01:15:14.489Z,19.45
2023-05-11T01:17:47.333Z,18.35
2023-05-11T01:20:22.655Z,15.07
2023-05-11T01:23:03.269Z,17.52
2023-05-11T01:25:51.642Z,17.23
2023-05-11T01:28:37.278Z,19.05
2023-05-11T01:31:10.588Z,17.48
2023-05-11T01:33:41.860Z,16.80
2023-05-11T01:36:12.580Z,17.55
2023-05-11T01:38:42.595Z,17.30
2023-05-11T01:41:17.130Z,17.38
2023-05-11T01:43:53.141Z,15.60
2023-05-11T01:46:24.199Z,15.40
2023-05-11T01:48:55.660Z,15.32
2023-05-11T01:51:26.861Z,16.30
2023-05-11T01:53:55.369Z,16.83
2023-05-11T01:56:26.080Z,16.27
2023-05-11T01:58:56.290Z,16.03
2023-05-11T02:01:25.766Z,17.48
2023-05-11T02:03:55.198Z,17.65
2023-05-11T02:06:24.846Z,17.63
2023-05-11T02:08:54.238Z,17.98
2023-05-11T02:11:25.296Z,17.67
2023-05-11T02:13:56.512Z,17.38
2023-05-11T02:16:27.799Z,16.35
2023-05-11T02:18:56.659Z,17.63
2023-05-11T02:21:25.912Z,17.70
2023-05-11T02:23:54.054Z,17.53
2023-05-11T02:26:22.390Z,15.75
2023-05-11T02:28:50.670Z,16.92
2023-05-11T02:31:22.086Z,17.90
2023-05-11T02:33:54.562Z,16.45
2023-05-11T02:36:24.702Z,15.97
2023-05-11T02:38:59.389Z,14.07
2023-05-11T02:41:29.999Z,15.57
2023-05-11T02:44:03.692Z,15.52
2023-05-11T02:46:37.642Z,16.23
2023-05-11T02:49:09.982Z,16.17
2023-05-11T02:51:39.679Z,14.88
2023-05-11T02:54:10.707Z,16.58
2023-05-11T02:56:42.480Z,16.25
2023-05-11T02:59:10.269Z,16.88
2023-05-11T03:01:40.329Z,15.87
2023-05-11T03:04:09.449Z,17.73
2023-05-11T03:06:37.971Z,18.35
2023-05-11T03:09:10.012Z,17.40
2023-05-11T03:11:43.281Z,17.02
2023-05-11T03:14:11.502Z,20.70
2023-05-11T03:16:40.745Z,18.15
2023-05-11T03:19:11.063Z,19.27
2023-05-11T03:21:40.474Z,17.27
2023-05-11T03:24:09.434Z,19.15
2023-05-11T03:26:37.657Z,19.53
2023-05-11T03:29:08.526Z,19.70
2023-05-11T03:31:36.213Z,20.67
2023-05-11T03:34:03.813Z,22.05
2023-05-11T03:36:39.257Z,23.98
2023-05-11T03:39:09.759Z,22.23
2023-05-11T03:41:40.023Z,23.92
2023-05-11T03:44:09.302Z,22.00
2023-05-11T03:46:40.282Z,21.33
2023-05-11T03:49:12.731Z,21.75
2023-05-11T03:51:43.152Z,20.50
2023-05-11T03:54:11.776Z,20.77
2023-05-11T03:56:41.785Z,19.63
2023-05-11T03:59:09.873Z,21.30
2023-05-11T04:01:37.793Z,19.33
2023-05-11T04:04:05.848Z,16.33
2023-05-11T04:06:33.499Z,15.80
2023-05-11T04:09:10.533Z,17.50
2023-05-11T04:11:38.235Z,18.38
2023-05-11T04:14:05.983Z,19.35
2023-05-11T04:16:33.603Z,20.20
2023-05-11T04:19:02.571Z,23.92
2023-05-11T04:21:30.601Z,21.42
2023-05-11T04:23:58.129Z,22.02
2023-05-11T04:26:27.138Z,23.70
2023-05-11T04:28:54.954Z,24.33
2023-05-11T04:31:22.675Z,27.63
2023-05-11T04:33:50.728Z,23.08
2023-05-11T04:36:18.399Z,26.02
2023-05-11T04:38:46.313Z,26.33
2023-05-11T04:41:14.807Z,27.03
2023-05-11T04:43:44.112Z,26.08
2023-05-11T04:46:11.759Z,26.88
2023-05-11T04:48:39.788Z,27.73
2023-05-11T04:51:07.692Z,25.27
2023-05-11T04:53:40.676Z,28.70
2023-05-11T04:56:08.331Z,25.60
2023-05-11T04:58:36.120Z,29.02
2023-05-11T05:01:05.348Z,26.88
2023-05-11T05:03:33.047Z,25.65
2023-05-11T05:06:00.577Z,27.43
2023-05-11T05:08:28.181Z,24.75
2023-05-11T05:10:55.742Z,28.75
2023-05-11T05:13:23.301Z,30.20
2023-05-11T05:15:50.909Z,28.95
2023-05-11T05:18:19.968Z,28.00
2023-05-11T05:20:49.276Z,28.33
2023-05-11T05:23:16.798Z,28.38
2023-05-11T05:25:45.223Z,29.60
2023-05-11T05:28:12.784Z,27.25
2023-05-11T05:30:40.554Z,27.43
2023-05-11T05:33:08.507Z,24.88
2023-05-11T05:35:38.262Z,25.17
2023-05-11T05:38:06.004Z,26.27
2023-05-11T05:40:37.340Z,24.73
2023-05-11T05:43:05.085Z,27.47
2023-05-11T05:45:32.763Z,25.23
2023-05-11T05:48:01.359Z,27.33
2023-05-11T05:50:28.931Z,30.60
2023-05-11T05:52:58.765Z,32.03
2023-05-11T05:55:28.572Z,29.40
2023-05-11T05:57:57.646Z,30.35
2023-05-11T06:00:25.624Z,28.20
2023-05-11T06:03:02.372Z,28.63
2023-05-11T06:05:30.116Z,33.15
2023-05-11T06:08:09.696Z,25.07
2023-05-11T06:10:39.109Z,23.92
2023-05-11T06:13:08.459Z,25.40
2023-05-11T06:15:36.730Z,25.15
2023-05-11T06:18:11.733Z,24.58
2023-05-11T06:20:41.463Z,24.80
2023-05-11T06:23:10.745Z,28.48
2023-05-11T06:25:40.958Z,27.15
2023-05-11T06:28:08.747Z,29.20
2023-05-11T06:30:37.734Z,26.42
2023-05-11T06:33:08.140Z,31.07
2023-05-11T06:35:37.436Z,25.73
2023-05-11T06:38:07.281Z,27.50
2023-05-11T06:40:37.983Z,31.00
2023-05-11T06:43:06.313Z,28.23
2023-05-11T06:45:46.285Z,32.83
2023-05-11T06:48:14.099Z,29.42
2023-05-11T06:50:41.780Z,31.13
2023-05-11T06:53:13.407Z,29.33
2023-05-11T06:55:42.413Z,26.95
2023-05-11T06:58:10.038Z,28.73
2023-05-11T07:00:37.563Z,31.70
2023-05-11T07:03:05.794Z,28.90
2023-05-11T07:05:33.550Z,23.02
2023-05-11T07:08:01.075Z,24.10
2023-05-11T07:10:28.680Z,28.13
2023-05-11T07:12:57.763Z,28.65
2023-05-11T07:15:25.535Z,24.77
2023-05-11T07:17:53.365Z,28.73
2023-05-11T07:20:21.180Z,26.55
2023-05-11T07:22:48.925Z,25.50
2023-05-11T07:25:16.566Z,26.88
2023-05-11T07:27:44.436Z,27.92
2023-05-11T07:30:14.094Z,27.75
2023-05-11T07:32:41.603Z,25.20
2023-05-11T07:35:09.664Z,29.23
2023-05-11T07:37:37.400Z,26.88
2023-05-11T07:40:06.004Z,25.95
2023-05-11T07:42:33.548Z,28.98
2023-05-11T07:45:01.126Z,26.27
2023-05-11T07:47:30.083Z,31.47
2023-05-11T07:49:57.947Z,26.85
2023-05-11T07:52:25.790Z,23.85
2023-05-11T07:54:53.437Z,24.55
2023-05-11T07:57:21.258Z,26.35
2023-05-11T07:59:49.037Z,21.63
2023-05-11T08:02:16.799Z,23.35
2023-05-11T08:04:45.900Z,22.23
2023-05-11T08:07:13.752Z,23.67
2023-05-11T08:09:41.265Z,23.48
2023-05-11T08:12:08.916Z,21.33
2023-05-11T08:14:37.645Z,17.90
2023-05-11T08:17:05.626Z,23.58
2023-05-11T08:19:33.201Z,25.88
2023-05-11T08:22:02.822Z,25.55
2023-05-11T08:24:30.470Z,26.00
2023-05-11T08:26:58.012Z,25.38
2023-05-11T08:29:27.347Z,23.13
2023-05-11T08:31:55.231Z,22.90
2023-05-11T08:34:23.392Z,22.80
2023-05-11T08:36:52.753Z,20.90
2023-05-11T08:39:43.308Z,23.05
2023-05-11T08:42:11.014Z,24.50
2023-05-11T08:44:41.109Z,23.77
2023-05-11T08:47:21.369Z,25.17
2023-05-11T08:49:52.253Z,22.13
2023-05-11T08:52:20.428Z,23.27
2023-05-11T08:54:49.583Z,24.50
2023-05-11T08:57:17.366Z,25.08
2023-05-11T08:59:46.941Z,22.88
2023-05-11T09:02:17.828Z,24.57
2023-05-11T09:04:48.323Z,25.23
2023-05-11T09:07:18.166Z,27.02
2023-05-11T09:09:47.354Z,23.25
2023-05-11T09:12:16.634Z,27.30
2023-05-11T09:14:44.834Z,25.30
2023-05-11T09:17:12.468Z,23.35
2023-05-11T09:19:58.342Z,22.73
2023-05-11T09:22:27.297Z,26.33
2023-05-11T09:24:56.561Z,26.63
2023-05-11T09:27:26.640Z,25.23
2023-05-11T09:29:55.133Z,23.08
2023-05-11T09:32:23.066Z,27.77
2023-05-11T09:34:50.570Z,24.65
2023-05-11T09:37:19.633Z,22.88
2023-05-11T09:40:17.676Z,24.37
2023-05-11T09:42:36.547Z,23.25
2023-05-11T09:45:04.421Z,22.60
2023-05-11T09:47:40.474Z,23.33
2023-05-11T09:50:18.694Z,21.75
2023-05-11T09:52:53.348Z,21.10
2023-05-11T09:55:21.061Z,19.05
2023-05-11T09:57:55.251Z,20.42
2023-05-11T10:00:23.059Z,20.60
2023-05-11T10:03:02.937Z,19.05
2023-05-11T10:05:32.161Z,19.67
2023-05-11T10:08:01.146Z,19.33
2023-05-11T10:10:30.502Z,20.92
2023-05-11T10:13:00.734Z,19.23
2023-05-11T10:15:30.343Z,18.70
2023-05-11T10:18:01.183Z,18.60
2023-05-11T10:20:29.059Z,19.52
2023-05-11T10:22:57.121Z,17.60
2023-05-11T10:25:26.405Z,18.52
2023-05-11T10:27:55.599Z,16.73
2023-05-11T10:30:25.118Z,19.57
2023-05-11T10:32:54.040Z,19.75
2023-05-11T10:35:23.620Z,18.77
2023-05-11T10:37:51.430Z,19.55
2023-05-11T10:40:19.898Z,19.75
2023-05-11T10:43:15.677Z,16.60
2023-05-11T10:45:52.814Z,16.80
2023-05-11T10:48:37.730Z,15.52
2023-05-11T10:51:30.340Z,15.15
2023-05-11T10:54:09.278Z,14.52
2023-05-11T10:56:53.984Z,14.87
2023-05-11T10:59:41.654Z,12.73
2023-05-11T11:02:11.180Z,12.77
2023-05-11T11:04:46.449Z,13.13
2023-05-11T11:07:17.751Z,13.88
2023-05-11T11:09:54.229Z,14.40
2023-05-11T11:12:23.491Z,15.57
2023-05-11T11:14:55.812Z,15.05
2023-05-11T11:17:27.454Z,15.38
2023-05-11T11:19:55.346Z,15.15
2023-05-11T11:22:44.508Z,15.03
2023-05-11T11:25:12.923Z,13.95
2023-05-11T11:27:58.628Z,13.60
2023-05-11T11:30:30.887Z,14.73
2023-05-11T11:33:34.436Z,13.95
2023-05-11T11:36:02.734Z,14.03
2023-05-11T11:38:32.410Z,14.45
2023-05-11T11:41:00.120Z,13.43
2023-05-11T11:43:30.037Z,15.27
2023-05-11T11:45:59.398Z,15.20
2023-05-11T11:48:31.701Z,13.67
2023-05-11T11:51:05.970Z,14.85
2023-05-11T11:54:07.645Z,14.60
2023-05-11T11:56:45.575Z,15.27
2023-05-11T11:59:15.297Z,14.82
2023-05-11T12:01:46.476Z,16.70
2023-05-11T12:04:31.408Z,12.38
2023-05-11T12:07:00.439Z,13.85
2023-05-11T12:09:28.437Z,14.13
2023-05-11T12:11:57.630Z,12.82
2023-05-11T12:14:26.022Z,15.37
2023-05-11T12:17:05.058Z,15.75
2023-05-11T12:19:32.616Z,12.50
2023-05-11T12:22:02.037Z,13.55
2023-05-11T12:24:29.613Z,12.48
2023-05-11T12:26:58.533Z,14.87
2023-05-11T12:29:26.746Z,12.82
2023-05-11T12:31:55.204Z,13.18
2023-05-11T12:34:23.961Z,15.43
2023-05-11T12:36:54.403Z,12.65
2023-05-11T12:39:25.365Z,13.13
2023-05-11T12:41:54.693Z,13.73
2023-05-11T12:44:24.141Z,12.05
2023-05-11T12:46:52.146Z,13.43
2023-05-11T12:51:53.043Z,11.90
2023-05-11T12:54:30.326Z,13.45
2023-05-11T12:56:57.945Z,12.75
2023-05-11T12:59:30.958Z,15.98
2023-05-11T13:02:14.595Z,14.52
2023-05-11T13:04:43.060Z,14.93
2023-05-11T13:07:11.677Z,14.95
2023-05-11T13:09:41.361Z,14.50
2023-05-11T13:12:15.817Z,16.55
2023-05-11T13:14:43.807Z,13.45
2023-05-11T13:17:11.760Z,14.73
2023-05-11T13:19:40.126Z,13.90
2023-05-11T13:22:08.077Z,13.25
2023-05-11T13:24:35.765Z,12.70
2023-05-11T13:27:04.915Z,11.63
2023-05-11T13:29:33.203Z,12.90
2023-05-11T13:32:00.822Z,13.65
2023-05-11T13:34:28.348Z,12.32
2023-05-11T13:36:55.943Z,12.18
2023-05-11T13:39:23.598Z,11.90
2023-05-11T13:41:51.272Z,10.63
2023-05-11T13:44:20.817Z,9.70
2023-05-11T13:46:48.355Z,10.23
2023-05-11T13:49:15.996Z,12.73
2023-05-11T13:51:43.594Z,9.75
2023-05-11T13:54:13.057Z,11.57
2023-05-11T13:56:40.724Z,14.82
2023-05-11T13:59:08.410Z,13.60
2023-05-11T14:01:37.689Z,11.23
2023-05-11T14:04:06.022Z,11.57
2023-05-11T14:06:35.338Z,11.47
2023-05-11T14:09:02.856Z,13.18
2023-05-11T14:11:30.368Z,13.55
2023-05-11T14:13:57.947Z,14.57
2023-05-11T14:16:25.590Z,12.98
2023-05-11T14:18:54.485Z,13.00
2023-05-11T14:21:22.368Z,13.90
2023-05-11T14:24:06.777Z,11.75
2023-05-11T14:26:38.035Z,12.82
2023-05-11T14:29:05.657Z,12.32
2023-05-11T14:31:33.908Z,13.00
2023-05-11T14:34:03.935Z,12.30
2023-05-11T14:36:31.738Z,13.77
2023-05-11T14:38:59.366Z,12.98
2023-05-11T14:41:26.928Z,11.85
2023-05-11T14:43:54.451Z,10.67
2023-05-11T14:46:23.902Z,12.40
2023-05-11T14:48:53.602Z,14.73
2023-05-11T14:51:22.526Z,11.25
2023-05-11T14:53:50.125Z,13.20
2023-05-11T14:56:17.758Z,11.27
2023-05-11T14:58:45.902Z,13.82
2023-05-11T15:01:13.578Z,11.82
2023-05-11T15:03:42.105Z,12.32
2023-05-11T15:06:09.681Z,12.63
2023-05-11T15:08:38.670Z,11.17
2023-05-11T15:11:06.254Z,12.20
2023-05-11T15:13:33.831Z,10.52
2023-05-11T15:16:01.428Z,11.50
2023-05-11T15:18:29.151Z,11.90
2023-05-11T15:20:56.826Z,12.17
2023-05-11T15:23:24.898Z,10.35
2023-05-11T15:25:54.063Z,12.80
2023-05-11T15:28:21.618Z,12.00
2023-05-11T15:30:49.124Z,11.15
2023-05-11T15:33:16.828Z,13.73
2023-05-11T15:35:44.571Z,11.52
2023-05-11T15:38:12.267Z,14.40
2023-05-11T15:40:39.799Z,15.73
2023-05-11T15:43:08.715Z,12.68
2023-05-11T15:45:36.239Z,14.67
2023-05-11T15:48:04.745Z,13.82
2023-05-11T15:50:32.342Z,13.82
2023-05-11T15:53:00.888Z,17.10
2023-05-11T15:55:28.446Z,15.80
2023-05-11T15:57:56.090Z,12.67
2023-05-11T16:00:25.245Z,13.65
2023-05-11T16:02:53.565Z,14.98
2023-05-11T16:05:21.193Z,14.90
2023-05-11T16:07:48.914Z,12.65
2023-05-11T16:10:16.551Z,14.90
2023-05-11T16:12:44.342Z,14.70
2023-05-11T16:15:12.014Z,15.50
2023-05-11T16:17:40.910Z,15.43
2023-05-11T16:20:09.870Z,17.70
2023-05-11T16:22:38.702Z,15.97
2023-05-11T16:25:06.690Z,18.80
2023-05-11T16:27:34.177Z,17.70
2023-05-11T16:30:08.469Z,20.58
2023-05-11T16:32:47.092Z,18.85
2023-05-11T16:35:14.664Z,19.87
2023-05-11T16:37:42.512Z,18.23
2023-05-11T16:40:10.538Z,18.20
2023-05-11T16:42:38.136Z,18.00
2023-05-11T16:45:06.544Z,20.95
2023-05-11T16:47:34.196Z,19.93
2023-05-11T16:50:03.230Z,16.67
2023-05-11T16:52:30.935Z,17.40
2023-05-11T16:54:59.277Z,18.73
2023-05-11T16:57:26.965Z,17.95
2023-05-11T16:59:54.574Z,18.23
2023-05-11T17:02:22.189Z,19.75
2023-05-11T17:04:49.850Z,18.77
2023-05-11T17:07:18.753Z,18.63
2023-05-11T17:09:46.629Z,18.33
2023-05-11T17:12:14.233Z,23.43
2023-05-11T17:14:41.724Z,21.67
2023-05-11T17:17:09.614Z,24.67
2023-05-11T17:19:38.262Z,21.38
2023-05-11T17:22:06.862Z,22.75
2023-05-11T17:24:36.346Z,22.50
2023-05-11T17:27:04.130Z,25.05
2023-05-11T17:29:32.008Z,21.40
2023-05-11T17:31:59.830Z,24.35
2023-05-11T17:34:28.793Z,26.02
2023-05-11T17:36:56.726Z,23.43
2023-05-11T17:39:24.239Z,22.73
2023-05-11T17:41:53.222Z,23.45
2023-05-11T17:44:21.255Z,21.10
2023-05-11T17:46:49.369Z,24.45
2023-05-11T17:49:17.127Z,23.70
2023-05-11T17:51:44.957Z,24.48
2023-05-11T17:54:12.438Z,25.67
2023-05-11T17:56:40.158Z,23.25
2023-05-11T17:59:09.248Z,23.05
2023-05-11T18:01:36.850Z,23.97
2023-05-11T18:04:05.089Z,22.98
2023-05-11T18:06:33.143Z,22.95
2023-05-11T18:09:00.968Z,22.80
2023-05-11T18:11:29.418Z,24.92
2023-05-11T18:13:57.225Z,22.97
2023-05-11T18:16:26.359Z,27.15
2023-05-11T18:18:54.013Z,24.27
2023-05-11T18:21:21.924Z,22.30
2023-05-11T18:23:49.473Z,21.85
2023-05-11T18:26:19.114Z,20.23
2023-05-11T18:28:46.994Z,19.60
2023-05-11T18:31:14.653Z,21.90
2023-05-11T18:33:43.610Z,19.15
2023-05-11T18:36:11.927Z,16.80
2023-05-11T18:38:39.546Z,18.33
2023-05-11T18:41:09.222Z,18.95
2023-05-11T18:43:36.802Z,18.08
2023-05-11T18:46:08.152Z,15.93
2023-05-11T18:48:35.936Z,17.55
2023-05-11T18:51:05.111Z,21.37
2023-05-11T18:53:33.257Z,17.05
2023-05-11T18:56:00.796Z,17.00
2023-05-11T18:58:28.435Z,17.02
2023-05-11T19:00:56.129Z,17.08
2023-05-11T19:03:23.733Z,16.17
2023-05-11T19:05:51.857Z,19.60
2023-05-11T19:08:20.733Z,20.20
2023-05-11T19:10:49.374Z,18.20
2023-05-11T19:13:17.047Z,18.98
2023-05-11T19:15:44.905Z,18.13
2023-05-11T19:18:12.481Z,17.73
2023-05-11T19:20:40.174Z,17.38
2023-05-11T19:23:07.889Z,20.92
2023-05-11T19:25:36.950Z,18.17
2023-05-11T19:28:04.862Z,17.90
2023-05-11T19:30:32.677Z,19.50
2023-05-11T19:33:00.313Z,18.30
2023-05-11T19:35:28.226Z,18.55
2023-05-11T19:37:55.883Z,20.50
2023-05-11T19:42:56.770Z,19.85
2023-05-11T19:45:24.747Z,21.80
2023-05-11T19:47:52.270Z,23.70
2023-05-11T19:50:22.638Z,20.63
2023-05-11T19:52:51.998Z,19.37
2023-05-11T19:55:19.577Z,21.98
2023-05-11T19:57:47.123Z,21.20
2023-05-11T20:00:17.971Z,20.75
2023-05-11T20:02:46.437Z,20.35
2023-05-11T20:05:14.053Z,20.00
2023-05-11T20:07:41.643Z,20.42
2023-05-11T20:10:09.965Z,20.52
2023-05-11T20:12:38.853Z,20.92
2023-05-11T20:15:07.238Z,21.45
2023-05-11T20:17:36.578Z,21.13
2023-05-11T20:20:04.680Z,20.48
2023-05-11T20:22:32.249Z,18.88
2023-05-11T20:24:59.831Z,18.95
2023-05-11T20:27:27.380Z,19.52
2023-05-11T20:29:55.541Z,18.13
2023-05-11T20:32:23.124Z,18.83
2023-05-11T20:34:52.804Z,16.00
2023-05-11T20:37:20.536Z,19.20
2023-05-11T20:39:48.344Z,18.13
2023-05-11T20:42:15.882Z,17.07
2023-05-11T20:44:43.425Z,16.60
2023-05-11T20:47:11.086Z,18.48
2023-05-11T20:49:39.578Z,19.23
2023-05-11T20:52:09.036Z,15.43
2023-05-11T20:54:37.038Z,14.57
2023-05-11T20:57:05.094Z,14.98
2023-05-11T21:02:03.740Z,14.10
2023-05-11T21:04:32.035Z,15.35
2023-05-11T21:06:59.560Z,15.03
2023-05-11T21:09:28.468Z,14.18
2023-05-11T21:11:56.016Z,15.27
2023-05-11T21:14:23.688Z,13.52
2023-05-11T21:16:51.213Z,13.70
2023-05-11T21:19:19.548Z,13.87
2023-05-11T21:21:49.395Z,14.23
2023-05-11T21:24:17.111Z,12.90
2023-05-11T21:26:48.107Z,11.60
2023-05-11T21:29:15.915Z,12.80
2023-05-11T21:31:43.466Z,13.07
2023-05-11T21:34:11.792Z,12.45
2023-05-11T21:36:41.192Z,11.50
2023-05-11T21:39:08.807Z,10.05
2023-05-11T21:41:36.561Z,14.10
2023-05-11T21:44:05.763Z,11.57
2023-05-11T21:46:33.463Z,12.00
2023-05-11T21:49:01.198Z,10.13
2023-05-11T21:51:28.821Z,10.85
2023-05-11T21:53:56.441Z,9.65
2023-05-11T21:56:24.989Z,14.67
2023-05-11T21:58:52.536Z,12.18
2023-05-11T22:01:21.527Z,10.23
2023-05-11T22:03:49.428Z,9.77
2023-05-11T22:06:17.064Z,12.35
2023-05-11T22:08:45.491Z,12.70
2023-05-11T22:11:13.037Z,13.18
2023-05-11T22:13:40.604Z,11.13
2023-05-11T22:16:08.643Z,11.05
2023-05-11T22:18:37.677Z,13.43
2023-05-11T22:21:05.778Z,12.27
2023-05-11T22:23:33.299Z,12.60
2023-05-11T22:26:00.806Z,13.30
2023-05-11T22:28:28.364Z,11.25
2023-05-11T22:30:55.947Z,10.93
2023-05-11T22:33:23.532Z,9.70
2023-05-11T22:35:52.353Z,9.95
2023-05-11T22:38:19.898Z,9.57
2023-05-11T22:40:47.457Z,9.85
2023-05-11T22:43:15.875Z,10.98
2023-05-11T22:45:43.437Z,12.40
2023-05-11T22:48:11.043Z,11.15
2023-05-11T22:50:38.602Z,10.13
2023-05-11T22:53:07.758Z,9.52
2023-05-11T22:55:35.369Z,10.85
2023-05-11T22:58:03.590Z,12.17
2023-05-11T23:00:31.217Z,11.40
2023-05-11T23:02:59.021Z,9.90
2023-05-11T23:05:26.715Z,10.98
2023-05-11T23:07:55.865Z,10.43
2023-05-11T23:10:24.858Z,11.10
2023-05-11T23:12:52.386Z,9.60
2023-05-11T23:15:19.914Z,11.48
2023-05-11T23:17:47.602Z,9.85
2023-05-11T23:20:15.387Z,11.40
2023-05-11T23:22:42.951Z,11.03
2023-05-11T23:25:11.345Z,10.10
2023-05-11T23:27:40.356Z,10.00
2023-05-11T23:30:08.943Z,9.95
2023-05-11T23:32:36.614Z,9.07
2023-05-11T23:35:04.396Z,9.03
2023-05-11T23:37:31.918Z,9.25
2023-05-11T23:39:59.456Z,10.35
2023-05-11T23:42:27.537Z,9.40
2023-05-11T23:44:56.582Z,10.13
2023-05-11T23:47:24.344Z,9.13
2023-05-11T23:49:51.916Z,9.75
2023-05-11T23:52:19.453Z,10.40
2023-05-11T23:54:46.974Z,8.93
2023-05-11T23:57:14.464Z,9.43
2023-05-11T23:59:41.970Z,10.50
